sensor_id;sensor_type;location;lat;lon;timestamp;temperature;humidity
3023;DHT22;1521;53.584;9.938;2023-02-23T00:01:43;7.30;99.90
3023;DHT22;1521;53.584;9.938;2023-02-23T00:04:09;7.30;99.90
3023;DHT22;1521;53.584;9.938;2023-02-23T00:06:35;7.20;99.90
3023;DHT22;1521;53.584;9.938;2023-02-23T00:09:03;7.20;99.90
3023;DHT22;1521;53.584;9.938;2023-02-23T00:11:36;7.20;99.90
3023;DHT22;1521;53.584;9.938;2023-02-23T00:14:02;7.20;99.90
3023;DHT22;1521;53.584;9.938;2023-02-23T00:16:28;7.20;99.90
3023;DHT22;1521;53.584;9.938;2023-02-23T00:18:56;7.20;99.90
3023;DHT22;1521;53.584;9.938;2023-02-23T00:21:31;7.20;99.90
3023;DHT22;1521;53.584;9.938;2023-02-23T00:24:07;7.10;99.90
3023;DHT22;1521;53.584;9.938;2023-02-23T00:26:35;7.10;99.90
3023;DHT22;1521;53.584;9.938;2023-02-23T00:29:06;7.00;99.90
3023;DHT22;1521;53.584;9.938;2023-02-23T00:31:32;7.00;99.90
3023;DHT22;1521;53.584;9.938;2023-02-23T00:34:00;7.00;99.90
3023;DHT22;1521;53.584;9.938;2023-02-23T00:36:28;7.10;99.90
3023;DHT22;1521;53.584;9.938;2023-02-23T00:38:59;7.00;99.90
3023;DHT22;1521;53.584;9.938;2023-02-23T00:41:26;7.00;99.90
3023;DHT22;1521;53.584;9.938;2023-02-23T00:43:55;7.00;99.90
3023;DHT22;1521;53.584;9.938;2023-02-23T00:46:23;7.00;99.90
3023;DHT22;1521;53.584;9.938;2023-02-23T00:48:50;7.00;99.90
3023;DHT22;1521;53.584;9.938;2023-02-23T00:51:17;6.90;99.90
3023;DHT22;1521;53.584;9.938;2023-02-23T00:53:43;6.90;99.90
3023;DHT22;1521;53.584;9.938;2023-02-23T00:56:10;6.90;99.90
3023;DHT22;1521;53.584;9.938;2023-02-23T00:58:36;6.90;99.90
3023;DHT22;1521;53.584;9.938;2023-02-23T01:01:06;6.90;99.90
3023;DHT22;1521;53.584;9.938;2023-02-23T01:03:32;6.80;99.90
3023;DHT22;1521;53.584;9.938;2023-02-23T01:06:00;6.80;99.90
3023;DHT22;1521;53.584;9.938;2023-02-23T01:08:30;6.80;99.90
3023;DHT22;1521;53.584;9.938;2023-02-23T01:10:56;6.80;99.90
3023;DHT22;1521;53.584;9.938;2023-02-23T01:13:23;6.80;99.90
3023;DHT22;1521;53.584;9.938;2023-02-23T01:15:49;6.80;99.90
3023;DHT22;1521;53.584;9.938;2023-02-23T01:18:16;6.80;99.90
3023;DHT22;1521;53.584;9.938;2023-02-23T01:20:43;6.80;99.90
3023;DHT22;1521;53.584;9.938;2023-02-23T01:23:11;6.80;99.90
3023;DHT22;1521;53.584;9.938;2023-02-23T01:25:37;6.80;99.90
3023;DHT22;1521;53.584;9.938;2023-02-23T01:28:03;6.80;99.90
3023;DHT22;1521;53.584;9.938;2023-02-23T01:30:28;6.70;99.90
3023;DHT22;1521;53.584;9.938;2023-02-23T01:32:55;6.70;99.90
3023;DHT22;1521;53.584;9.938;2023-02-23T01:35:20;6.70;99.90
3023;DHT22;1521;53.584;9.938;2023-02-23T01:37:46;6.70;99.90
3023;DHT22;1521;53.584;9.938;2023-02-23T01:40:18;6.70;99.90
3023;DHT22;1521;53.584;9.938;2023-02-23T01:42:58;6.70;99.90
3023;DHT22;1521;53.584;9.938;2023-02-23T01:45:34;6.70;99.90
3023;DHT22;1521;53.584;9.938;2023-02-23T01:48:12;6.80;99.90
3023;DHT22;1521;53.584;9.938;2023-02-23T01:53:18;6.90;99.90
3023;DHT22;1521;53.584;9.938;2023-02-23T01:55:50;6.90;99.90
3023;DHT22;1521;53.584;9.938;2023-02-23T01:58:21;6.90;99.90
3023;DHT22;1521;53.584;9.938;2023-02-23T02:00:57;7.00;99.90
3023;DHT22;1521;53.584;9.938;2023-02-23T02:03:32;7.00;99.90
3023;DHT22;1521;53.584;9.938;2023-02-23T02:06:01;6.90;99.90
3023;DHT22;1521;53.584;9.938;2023-02-23T02:08:29;6.90;99.90
3023;DHT22;1521;53.584;9.938;2023-02-23T02:10:55;7.10;99.90
3023;DHT22;1521;53.584;9.938;2023-02-23T02:13:24;7.10;99.90
3023;DHT22;1521;53.584;9.938;2023-02-23T02:16:16;7.10;99.90
3023;DHT22;1521;53.584;9.938;2023-02-23T02:18:48;7.10;99.90
3023;DHT22;1521;53.584;9.938;2023-02-23T02:27:09;7.30;99.90
3023;DHT22;1521;53.584;9.938;2023-02-23T02:32:37;7.30;99.90
3023;DHT22;1521;53.584;9.938;2023-02-23T02:38:34;7.30;99.90
3023;DHT22;1521;53.584;9.938;2023-02-23T02:41:16;7.30;99.90
3023;DHT22;1521;53.584;9.938;2023-02-23T02:43:57;7.30;99.90
3023;DHT22;1521;53.584;9.938;2023-02-23T02:46:32;7.30;99.90
3023;DHT22;1521;53.584;9.938;2023-02-23T02:51:31;7.30;99.90
3023;DHT22;1521;53.584;9.938;2023-02-23T02:54:40;7.30;99.90
3023;DHT22;1521;53.584;9.938;2023-02-23T02:57:06;7.30;99.90
3023;DHT22;1521;53.584;9.938;2023-02-23T02:59:42;7.20;99.90
3023;DHT22;1521;53.584;9.938;2023-02-23T03:02:27;7.10;99.90
3023;DHT22;1521;53.584;9.938;2023-02-23T03:05:17;7.10;99.90
3023;DHT22;1521;53.584;9.938;2023-02-23T03:11:09;7.00;99.90
3023;DHT22;1521;53.584;9.938;2023-02-23T03:19:56;6.90;99.90
3023;DHT22;1521;53.584;9.938;2023-02-23T03:22:54;6.80;99.90
3023;DHT22;1521;53.584;9.938;2023-02-23T03:25:50;6.80;99.90
3023;DHT22;1521;53.584;9.938;2023-02-23T03:28:54;6.90;99.90
3023;DHT22;1521;53.584;9.938;2023-02-23T03:31:45;6.80;99.90
3023;DHT22;1521;53.584;9.938;2023-02-23T03:34:37;6.70;99.90
3023;DHT22;1521;53.584;9.938;2023-02-23T03:40:21;6.70;99.90
3023;DHT22;1521;53.584;9.938;2023-02-23T03:43:18;6.70;99.90
3023;DHT22;1521;53.584;9.938;2023-02-23T03:46:08;6.70;99.90
3023;DHT22;1521;53.584;9.938;2023-02-23T03:48:55;6.70;99.90
3023;DHT22;1521;53.584;9.938;2023-02-23T03:51:43;6.70;99.90
3023;DHT22;1521;53.584;9.938;2023-02-23T03:54:36;6.70;99.90
3023;DHT22;1521;53.584;9.938;2023-02-23T03:57:24;6.80;99.90
3023;DHT22;1521;53.584;9.938;2023-02-23T04:00:14;6.80;99.90
3023;DHT22;1521;53.584;9.938;2023-02-23T04:03:00;6.80;99.90
3023;DHT22;1521;53.584;9.938;2023-02-23T04:05:47;6.80;99.90
3023;DHT22;1521;53.584;9.938;2023-02-23T04:08:35;6.80;99.90
3023;DHT22;1521;53.584;9.938;2023-02-23T04:11:33;6.80;99.90
3023;DHT22;1521;53.584;9.938;2023-02-23T04:14:24;6.80;99.90
3023;DHT22;1521;53.584;9.938;2023-02-23T04:16:51;6.80;99.90
3023;DHT22;1521;53.584;9.938;2023-02-23T04:19:17;6.80;99.90
3023;DHT22;1521;53.584;9.938;2023-02-23T04:21:42;6.80;99.90
3023;DHT22;1521;53.584;9.938;2023-02-23T04:24:08;6.80;99.90
3023;DHT22;1521;53.584;9.938;2023-02-23T04:26:34;6.90;99.90
3023;DHT22;1521;53.584;9.938;2023-02-23T04:29:00;6.90;99.90
3023;DHT22;1521;53.584;9.938;2023-02-23T04:31:25;6.90;99.90
3023;DHT22;1521;53.584;9.938;2023-02-23T04:33:51;6.90;99.90
3023;DHT22;1521;53.584;9.938;2023-02-23T04:36:16;6.90;99.90
3023;DHT22;1521;53.584;9.938;2023-02-23T04:38:42;6.90;99.90
3023;DHT22;1521;53.584;9.938;2023-02-23T04:41:08;6.90;99.90
3023;DHT22;1521;53.584;9.938;2023-02-23T04:43:33;6.90;99.90
3023;DHT22;1521;53.584;9.938;2023-02-23T04:45:59;6.90;99.90
3023;DHT22;1521;53.584;9.938;2023-02-23T04:48:25;6.90;99.90
3023;DHT22;1521;53.584;9.938;2023-02-23T04:50:53;6.90;99.90
3023;DHT22;1521;53.584;9.938;2023-02-23T04:53:18;6.90;99.90
3023;DHT22;1521;53.584;9.938;2023-02-23T04:55:44;6.90;99.90
3023;DHT22;1521;53.584;9.938;2023-02-23T04:58:10;7.00;99.90
3023;DHT22;1521;53.584;9.938;2023-02-23T05:00:38;7.00;99.90
3023;DHT22;1521;53.584;9.938;2023-02-23T05:03:04;6.90;99.90
3023;DHT22;1521;53.584;9.938;2023-02-23T05:05:30;7.00;99.90
3023;DHT22;1521;53.584;9.938;2023-02-23T05:07:56;7.00;99.90
3023;DHT22;1521;53.584;9.938;2023-02-23T05:10:22;7.00;99.90
3023;DHT22;1521;53.584;9.938;2023-02-23T05:12:47;7.00;99.90
3023;DHT22;1521;53.584;9.938;2023-02-23T05:15:13;7.00;99.90
3023;DHT22;1521;53.584;9.938;2023-02-23T05:17:39;7.00;99.90
3023;DHT22;1521;53.584;9.938;2023-02-23T05:20:10;7.00;99.90
3023;DHT22;1521;53.584;9.938;2023-02-23T05:22:36;7.00;99.90
3023;DHT22;1521;53.584;9.938;2023-02-23T05:25:02;7.10;99.90
3023;DHT22;1521;53.584;9.938;2023-02-23T05:27:29;7.10;99.90
3023;DHT22;1521;53.584;9.938;2023-02-23T05:29:54;7.10;99.90
3023;DHT22;1521;53.584;9.938;2023-02-23T05:32:20;7.20;99.90
3023;DHT22;1521;53.584;9.938;2023-02-23T05:34:46;7.20;99.90
3023;DHT22;1521;53.584;9.938;2023-02-23T05:37:11;7.20;99.90
3023;DHT22;1521;53.584;9.938;2023-02-23T05:39:37;7.20;99.90
3023;DHT22;1521;53.584;9.938;2023-02-23T05:42:03;7.20;99.90
3023;DHT22;1521;53.584;9.938;2023-02-23T05:44:28;7.20;99.90
3023;DHT22;1521;53.584;9.938;2023-02-23T05:46:54;7.20;99.90
3023;DHT22;1521;53.584;9.938;2023-02-23T05:49:20;7.20;99.90
3023;DHT22;1521;53.584;9.938;2023-02-23T05:51:45;7.20;99.90
3023;DHT22;1521;53.584;9.938;2023-02-23T05:54:11;7.20;99.90
3023;DHT22;1521;53.584;9.938;2023-02-23T05:56:39;7.30;99.90
3023;DHT22;1521;53.584;9.938;2023-02-23T05:59:05;7.30;99.90
3023;DHT22;1521;53.584;9.938;2023-02-23T06:01:31;7.30;99.90
3023;DHT22;1521;53.584;9.938;2023-02-23T06:03:56;7.30;99.90
3023;DHT22;1521;53.584;9.938;2023-02-23T06:06:22;7.30;99.90
3023;DHT22;1521;53.584;9.938;2023-02-23T06:08:50;7.40;99.90
3023;DHT22;1521;53.584;9.938;2023-02-23T06:11:15;7.40;99.90
3023;DHT22;1521;53.584;9.938;2023-02-23T06:13:41;7.40;99.90
3023;DHT22;1521;53.584;9.938;2023-02-23T06:16:07;7.40;99.90
3023;DHT22;1521;53.584;9.938;2023-02-23T06:18:32;7.40;99.90
3023;DHT22;1521;53.584;9.938;2023-02-23T06:20:59;7.40;99.90
3023;DHT22;1521;53.584;9.938;2023-02-23T06:23:28;7.50;99.90
3023;DHT22;1521;53.584;9.938;2023-02-23T06:25:54;7.30;99.90
3023;DHT22;1521;53.584;9.938;2023-02-23T06:28:19;7.40;99.90
3023;DHT22;1521;53.584;9.938;2023-02-23T06:30:45;7.40;99.90
3023;DHT22;1521;53.584;9.938;2023-02-23T06:33:11;7.40;99.90
3023;DHT22;1521;53.584;9.938;2023-02-23T06:35:37;7.40;99.90
3023;DHT22;1521;53.584;9.938;2023-02-23T06:38:03;7.40;99.90
3023;DHT22;1521;53.584;9.938;2023-02-23T06:40:31;7.40;99.90
3023;DHT22;1521;53.584;9.938;2023-02-23T06:42:57;7.40;99.90
3023;DHT22;1521;53.584;9.938;2023-02-23T06:45:22;7.40;99.90
3023;DHT22;1521;53.584;9.938;2023-02-23T06:47:48;7.40;99.90
3023;DHT22;1521;53.584;9.938;2023-02-23T06:50:15;7.40;99.90
3023;DHT22;1521;53.584;9.938;2023-02-23T06:52:41;7.50;99.90
3023;DHT22;1521;53.584;9.938;2023-02-23T06:55:07;7.50;99.90
3023;DHT22;1521;53.584;9.938;2023-02-23T06:57:33;7.40;99.90
3023;DHT22;1521;53.584;9.938;2023-02-23T06:59:59;7.40;99.90
3023;DHT22;1521;53.584;9.938;2023-02-23T07:02:26;7.40;99.90
3023;DHT22;1521;53.584;9.938;2023-02-23T07:04:52;7.40;99.90
3023;DHT22;1521;53.584;9.938;2023-02-23T07:07:17;7.40;99.90
3023;DHT22;1521;53.584;9.938;2023-02-23T07:09:43;7.40;99.90
3023;DHT22;1521;53.584;9.938;2023-02-23T07:12:09;7.40;99.90
3023;DHT22;1521;53.584;9.938;2023-02-23T07:14:35;7.40;99.90
3023;DHT22;1521;53.584;9.938;2023-02-23T07:17:03;7.40;99.90
3023;DHT22;1521;53.584;9.938;2023-02-23T07:19:29;7.40;99.90
3023;DHT22;1521;53.584;9.938;2023-02-23T07:21:55;7.40;99.90
3023;DHT22;1521;53.584;9.938;2023-02-23T07:24:21;7.50;99.90
3023;DHT22;1521;53.584;9.938;2023-02-23T07:26:46;7.40;99.90
3023;DHT22;1521;53.584;9.938;2023-02-23T07:29:14;7.50;99.90
3023;DHT22;1521;53.584;9.938;2023-02-23T07:31:40;7.50;99.90
3023;DHT22;1521;53.584;9.938;2023-02-23T07:34:07;7.50;99.90
3023;DHT22;1521;53.584;9.938;2023-02-23T07:36:33;7.50;99.90
3023;DHT22;1521;53.584;9.938;2023-02-23T07:38:59;7.50;99.90
3023;DHT22;1521;53.584;9.938;2023-02-23T07:41:25;7.50;99.90
3023;DHT22;1521;53.584;9.938;2023-02-23T07:43:50;7.50;99.90
3023;DHT22;1521;53.584;9.938;2023-02-23T07:46:16;7.60;99.90
3023;DHT22;1521;53.584;9.938;2023-02-23T07:48:43;7.60;99.90
3023;DHT22;1521;53.584;9.938;2023-02-23T07:51:10;7.60;99.90
3023;DHT22;1521;53.584;9.938;2023-02-23T07:53:37;7.70;99.90
3023;DHT22;1521;53.584;9.938;2023-02-23T07:56:03;7.60;99.90
3023;DHT22;1521;53.584;9.938;2023-02-23T07:58:29;7.60;99.90
3023;DHT22;1521;53.584;9.938;2023-02-23T08:00:57;7.60;99.90
3023;DHT22;1521;53.584;9.938;2023-02-23T08:03:23;7.60;99.90
3023;DHT22;1521;53.584;9.938;2023-02-23T08:05:48;7.60;99.90
3023;DHT22;1521;53.584;9.938;2023-02-23T08:08:14;7.60;99.90
3023;DHT22;1521;53.584;9.938;2023-02-23T08:10:39;7.60;99.90
3023;DHT22;1521;53.584;9.938;2023-02-23T08:13:05;7.50;99.90
3023;DHT22;1521;53.584;9.938;2023-02-23T08:15:31;7.60;99.90
3023;DHT22;1521;53.584;9.938;2023-02-23T08:17:57;7.60;99.90
3023;DHT22;1521;53.584;9.938;2023-02-23T08:20:23;7.60;99.90
3023;DHT22;1521;53.584;9.938;2023-02-23T08:22:55;7.60;99.90
3023;DHT22;1521;53.584;9.938;2023-02-23T08:25:21;7.60;99.90
3023;DHT22;1521;53.584;9.938;2023-02-23T08:27:47;7.50;99.90
3023;DHT22;1521;53.584;9.938;2023-02-23T08:30:16;7.50;99.90
3023;DHT22;1521;53.584;9.938;2023-02-23T08:32:44;7.50;99.90
3023;DHT22;1521;53.584;9.938;2023-02-23T08:35:10;7.50;99.90
3023;DHT22;1521;53.584;9.938;2023-02-23T08:37:36;7.50;99.90
3023;DHT22;1521;53.584;9.938;2023-02-23T08:40:02;7.60;99.90
3023;DHT22;1521;53.584;9.938;2023-02-23T08:42:28;7.60;99.90
3023;DHT22;1521;53.584;9.938;2023-02-23T08:44:53;7.60;99.90
3023;DHT22;1521;53.584;9.938;2023-02-23T08:47:19;7.60;99.90
3023;DHT22;1521;53.584;9.938;2023-02-23T08:49:48;7.70;99.90
3023;DHT22;1521;53.584;9.938;2023-02-23T08:52:13;7.70;99.90
3023;DHT22;1521;53.584;9.938;2023-02-23T08:54:39;7.70;99.90
3023;DHT22;1521;53.584;9.938;2023-02-23T08:57:05;7.70;99.90
3023;DHT22;1521;53.584;9.938;2023-02-23T08:59:30;7.70;99.90
3023;DHT22;1521;53.584;9.938;2023-02-23T09:01:56;7.70;99.90
3023;DHT22;1521;53.584;9.938;2023-02-23T09:04:21;7.70;99.90
3023;DHT22;1521;53.584;9.938;2023-02-23T09:06:47;7.70;99.90
3023;DHT22;1521;53.584;9.938;2023-02-23T09:09:14;7.70;99.90
3023;DHT22;1521;53.584;9.938;2023-02-23T09:11:41;7.70;99.90
3023;DHT22;1521;53.584;9.938;2023-02-23T09:14:06;7.70;99.90
3023;DHT22;1521;53.584;9.938;2023-02-23T09:16:33;7.70;99.90
3023;DHT22;1521;53.584;9.938;2023-02-23T09:19:00;7.70;99.90
3023;DHT22;1521;53.584;9.938;2023-02-23T09:21:26;7.70;99.90
3023;DHT22;1521;53.584;9.938;2023-02-23T09:23:55;7.70;99.90
3023;DHT22;1521;53.584;9.938;2023-02-23T09:26:22;7.80;99.90
3023;DHT22;1521;53.584;9.938;2023-02-23T09:28:48;7.70;99.90
3023;DHT22;1521;53.584;9.938;2023-02-23T09:31:17;7.70;99.90
3023;DHT22;1521;53.584;9.938;2023-02-23T09:33:43;7.60;99.90
3023;DHT22;1521;53.584;9.938;2023-02-23T09:36:10;7.60;99.90
3023;DHT22;1521;53.584;9.938;2023-02-23T09:38:43;7.60;99.90
3023;DHT22;1521;53.584;9.938;2023-02-23T09:44:17;7.50;99.90
3023;DHT22;1521;53.584;9.938;2023-02-23T09:49:34;7.50;99.90
3023;DHT22;1521;53.584;9.938;2023-02-23T09:52:02;7.40;99.90
3023;DHT22;1521;53.584;9.938;2023-02-23T09:54:31;7.30;99.90
3023;DHT22;1521;53.584;9.938;2023-02-23T09:57:00;7.40;99.90
3023;DHT22;1521;53.584;9.938;2023-02-23T09:59:27;7.40;99.90
3023;DHT22;1521;53.584;9.938;2023-02-23T10:02:04;7.50;99.90
3023;DHT22;1521;53.584;9.938;2023-02-23T10:04:50;7.60;99.90
3023;DHT22;1521;53.584;9.938;2023-02-23T10:07:33;7.60;99.90
3023;DHT22;1521;53.584;9.938;2023-02-23T10:15:49;7.70;99.90
3023;DHT22;1521;53.584;9.938;2023-02-23T10:21:49;7.60;49.50
3023;DHT22;1521;53.584;9.938;2023-02-23T10:24:00;7.60;50.50
3023;DHT22;1521;53.584;9.938;2023-02-23T10:26:29;7.70;50.50
3023;DHT22;1521;53.584;9.938;2023-02-23T10:28:58;7.60;38.70
3023;DHT22;1521;53.584;9.938;2023-02-23T10:31:28;7.70;26.90
3023;DHT22;1521;53.584;9.938;2023-02-23T10:33:58;7.60;10.30
3023;DHT22;1521;53.584;9.938;2023-02-23T10:36:35;7.60;1.00
3023;DHT22;1521;53.584;9.938;2023-02-23T10:39:06;7.60;1.00
3023;DHT22;1521;53.584;9.938;2023-02-23T10:41:36;7.50;1.00
3023;DHT22;1521;53.584;9.938;2023-02-23T10:44:04;7.50;1.00
3023;DHT22;1521;53.584;9.938;2023-02-23T10:46:38;7.50;1.00
3023;DHT22;1521;53.584;9.938;2023-02-23T10:49:06;7.40;1.00
3023;DHT22;1521;53.584;9.938;2023-02-23T10:51:36;7.50;1.00
3023;DHT22;1521;53.584;9.938;2023-02-23T10:54:45;7.40;1.00
3023;DHT22;1521;53.584;9.938;2023-02-23T11:00:07;7.30;1.00
3023;DHT22;1521;53.584;9.938;2023-02-23T11:02:33;7.30;1.00
3023;DHT22;1521;53.584;9.938;2023-02-23T11:05:01;7.20;1.00
3023;DHT22;1521;53.584;9.938;2023-02-23T11:07:30;7.20;1.00
3023;DHT22;1521;53.584;9.938;2023-02-23T11:09:57;7.20;1.00
3023;DHT22;1521;53.584;9.938;2023-02-23T11:12:26;7.30;1.00
3023;DHT22;1521;53.584;9.938;2023-02-23T11:14:55;7.30;1.00
3023;DHT22;1521;53.584;9.938;2023-02-23T11:17:31;7.40;1.00
3023;DHT22;1521;53.584;9.938;2023-02-23T11:22:31;7.80;1.00
3023;DHT22;1521;53.584;9.938;2023-02-23T11:24:58;7.90;1.00
3023;DHT22;1521;53.584;9.938;2023-02-23T11:27:25;8.10;1.00
3023;DHT22;1521;53.584;9.938;2023-02-23T11:29:55;8.30;99.90
3023;DHT22;1521;53.584;9.938;2023-02-23T11:32:27;8.30;99.90
3023;DHT22;1521;53.584;9.938;2023-02-23T11:37:40;8.50;99.90
3023;DHT22;1521;53.584;9.938;2023-02-23T11:40:32;8.60;99.90
3023;DHT22;1521;53.584;9.938;2023-02-23T11:43:12;8.70;94.20
3023;DHT22;1521;53.584;9.938;2023-02-23T11:45:47;8.80;99.90
3023;DHT22;1521;53.584;9.938;2023-02-23T11:48:34;8.80;24.60
3023;DHT22;1521;53.584;9.938;2023-02-23T11:51:00;9.00;24.00
3023;DHT22;1521;53.584;9.938;2023-02-23T11:53:34;9.10;1.00
3023;DHT22;1521;53.584;9.938;2023-02-23T11:56:02;9.10;99.90
3023;DHT22;1521;53.584;9.938;2023-02-23T11:58:43;9.00;1.00
3023;DHT22;1521;53.584;9.938;2023-02-23T12:01:13;9.00;99.90
3023;DHT22;1521;53.584;9.938;2023-02-23T12:03:52;8.90;99.90
3023;DHT22;1521;53.584;9.938;2023-02-23T12:06:39;8.80;1.00
3023;DHT22;1521;53.584;9.938;2023-02-23T12:09:19;8.80;85.10
3023;DHT22;1521;53.584;9.938;2023-02-23T12:12:00;8.80;99.90
3023;DHT22;1521;53.584;9.938;2023-02-23T12:14:40;8.80;99.90
3023;DHT22;1521;53.584;9.938;2023-02-23T12:17:26;8.80;99.90
3023;DHT22;1521;53.584;9.938;2023-02-23T12:20:00;8.80;99.90
3023;DHT22;1521;53.584;9.938;2023-02-23T12:22:32;8.80;1.00
3023;DHT22;1521;53.584;9.938;2023-02-23T12:25:03;8.70;99.90
3023;DHT22;1521;53.584;9.938;2023-02-23T12:27:43;8.60;99.90
3023;DHT22;1521;53.584;9.938;2023-02-23T12:33:01;8.50;1.00
3023;DHT22;1521;53.584;9.938;2023-02-23T12:35:45;8.40;1.00
3023;DHT22;1521;53.584;9.938;2023-02-23T12:38:36;8.30;1.00
3023;DHT22;1521;53.584;9.938;2023-02-23T12:41:12;8.20;1.00
3023;DHT22;1521;53.584;9.938;2023-02-23T12:43:51;8.20;99.90
3023;DHT22;1521;53.584;9.938;2023-02-23T12:46:33;8.20;99.90
3023;DHT22;1521;53.584;9.938;2023-02-23T12:49:12;8.20;99.90
3023;DHT22;1521;53.584;9.938;2023-02-23T12:51:49;8.20;99.90
3023;DHT22;1521;53.584;9.938;2023-02-23T12:54:17;8.20;99.90
3023;DHT22;1521;53.584;9.938;2023-02-23T12:57:11;8.20;99.90
3023;DHT22;1521;53.584;9.938;2023-02-23T13:02:34;8.20;1.00
3023;DHT22;1521;53.584;9.938;2023-02-23T13:05:27;8.20;1.00
3023;DHT22;1521;53.584;9.938;2023-02-23T13:07:58;8.20;1.00
3023;DHT22;1521;53.584;9.938;2023-02-23T13:10:39;8.20;99.90
3023;DHT22;1521;53.584;9.938;2023-02-23T13:13:37;8.20;99.90
3023;DHT22;1521;53.584;9.938;2023-02-23T13:18:50;8.30;99.90
3023;DHT22;1521;53.584;9.938;2023-02-23T13:21:40;8.30;99.90
3023;DHT22;1521;53.584;9.938;2023-02-23T13:24:17;8.40;99.90
3023;DHT22;1521;53.584;9.938;2023-02-23T13:27:14;8.40;99.90
3023;DHT22;1521;53.584;9.938;2023-02-23T13:29:44;8.40;99.90
3023;DHT22;1521;53.584;9.938;2023-02-23T13:32:17;8.40;99.90
3023;DHT22;1521;53.584;9.938;2023-02-23T13:35:13;8.30;99.90
3023;DHT22;1521;53.584;9.938;2023-02-23T13:40:53;8.30;99.90
3023;DHT22;1521;53.584;9.938;2023-02-23T13:46:29;8.40;99.90
3023;DHT22;1521;53.584;9.938;2023-02-23T13:51:51;8.40;99.90
3023;DHT22;1521;53.584;9.938;2023-02-23T13:54:24;8.50;99.90
3023;DHT22;1521;53.584;9.938;2023-02-23T13:56:53;8.50;99.90
3023;DHT22;1521;53.584;9.938;2023-02-23T13:59:21;8.60;99.90
3023;DHT22;1521;53.584;9.938;2023-02-23T14:01:49;8.60;99.90
3023;DHT22;1521;53.584;9.938;2023-02-23T14:04:22;8.60;99.90
3023;DHT22;1521;53.584;9.938;2023-02-23T14:07:13;8.60;88.10
3023;DHT22;1521;53.584;9.938;2023-02-23T14:12:33;8.50;20.00
3023;DHT22;1521;53.584;9.938;2023-02-23T14:18:00;8.50;88.90
3023;DHT22;1521;53.584;9.938;2023-02-23T14:31:21;8.40;99.90
3023;DHT22;1521;53.584;9.938;2023-02-23T14:38:45;8.40;99.90
3023;DHT22;1521;53.584;9.938;2023-02-23T14:41:11;8.40;99.90
3023;DHT22;1521;53.584;9.938;2023-02-23T14:46:03;8.40;1.00
3023;DHT22;1521;53.584;9.938;2023-02-23T14:48:32;8.50;1.00
3023;DHT22;1521;53.584;9.938;2023-02-23T14:51:44;8.50;1.00
3023;DHT22;1521;53.584;9.938;2023-02-23T14:56:55;8.50;1.00
3023;DHT22;1521;53.584;9.938;2023-02-23T14:59:39;8.50;99.90
3023;DHT22;1521;53.584;9.938;2023-02-23T15:02:19;8.60;99.90
3023;DHT22;1521;53.584;9.938;2023-02-23T15:04:45;8.60;99.90
3023;DHT22;1521;53.584;9.938;2023-02-23T15:07:18;8.60;99.90
3023;DHT22;1521;53.584;9.938;2023-02-23T15:09:52;8.50;99.90
3023;DHT22;1521;53.584;9.938;2023-02-23T15:14:47;8.40;1.00
3023;DHT22;1521;53.584;9.938;2023-02-23T15:17:20;8.40;1.00
3023;DHT22;1521;53.584;9.938;2023-02-23T15:19:52;8.40;1.00
3023;DHT22;1521;53.584;9.938;2023-02-23T15:22:30;8.40;44.60
3023;DHT22;1521;53.584;9.938;2023-02-23T15:24:59;8.40;1.00
3023;DHT22;1521;53.584;9.938;2023-02-23T15:27:35;8.40;20.80
3023;DHT22;1521;53.584;9.938;2023-02-23T15:32:41;8.20;99.90
3023;DHT22;1521;53.584;9.938;2023-02-23T15:35:10;8.20;1.00
3023;DHT22;1521;53.584;9.938;2023-02-23T15:37:39;8.20;1.00
3023;DHT22;1521;53.584;9.938;2023-02-23T15:40:10;8.10;1.00
3023;DHT22;1521;53.584;9.938;2023-02-23T15:42:39;8.00;1.00
3023;DHT22;1521;53.584;9.938;2023-02-23T15:47:52;7.80;69.50
3023;DHT22;1521;53.584;9.938;2023-02-23T15:50:22;7.80;99.90
3023;DHT22;1521;53.584;9.938;2023-02-23T15:52:52;7.70;99.90
3023;DHT22;1521;53.584;9.938;2023-02-23T15:55:32;7.70;99.90
3023;DHT22;1521;53.584;9.938;2023-02-23T15:58:08;7.50;99.90
3023;DHT22;1521;53.584;9.938;2023-02-23T16:00:40;7.50;99.90
3023;DHT22;1521;53.584;9.938;2023-02-23T16:03:07;7.40;99.90
3023;DHT22;1521;53.584;9.938;2023-02-23T16:05:34;7.40;1.00
3023;DHT22;1521;53.584;9.938;2023-02-23T16:08:23;7.40;1.00
3023;DHT22;1521;53.584;9.938;2023-02-23T16:10:54;7.40;1.00
3023;DHT22;1521;53.584;9.938;2023-02-23T16:13:22;7.40;1.00
3023;DHT22;1521;53.584;9.938;2023-02-23T16:15:49;7.40;1.00
3023;DHT22;1521;53.584;9.938;2023-02-23T16:18:17;7.30;1.00
3023;DHT22;1521;53.584;9.938;2023-02-23T16:20:52;7.30;1.00
3023;DHT22;1521;53.584;9.938;2023-02-23T16:23:42;7.30;1.00
3023;DHT22;1521;53.584;9.938;2023-02-23T16:26:15;7.20;1.00
3023;DHT22;1521;53.584;9.938;2023-02-23T16:28:43;7.20;1.00
3023;DHT22;1521;53.584;9.938;2023-02-23T16:31:10;7.20;1.00
3023;DHT22;1521;53.584;9.938;2023-02-23T16:33:55;7.20;1.00
3023;DHT22;1521;53.584;9.938;2023-02-23T16:36:41;7.20;1.00
3023;DHT22;1521;53.584;9.938;2023-02-23T16:39:11;7.10;1.00
3023;DHT22;1521;53.584;9.938;2023-02-23T16:41:37;7.00;1.00
3023;DHT22;1521;53.584;9.938;2023-02-23T16:44:04;7.00;1.00
3023;DHT22;1521;53.584;9.938;2023-02-23T16:46:32;7.00;1.00
3023;DHT22;1521;53.584;9.938;2023-02-23T16:49:17;6.90;1.00
3023;DHT22;1521;53.584;9.938;2023-02-23T16:51:42;6.90;1.00
3023;DHT22;1521;53.584;9.938;2023-02-23T16:54:08;6.80;1.00
3023;DHT22;1521;53.584;9.938;2023-02-23T16:56:34;6.70;1.00
3023;DHT22;1521;53.584;9.938;2023-02-23T16:59:01;6.70;1.00
3023;DHT22;1521;53.584;9.938;2023-02-23T17:01:28;6.70;1.00
3023;DHT22;1521;53.584;9.938;2023-02-23T17:03:54;6.70;1.00
3023;DHT22;1521;53.584;9.938;2023-02-23T17:06:20;6.50;29.40
3023;DHT22;1521;53.584;9.938;2023-02-23T17:08:46;6.40;99.90
3023;DHT22;1521;53.584;9.938;2023-02-23T17:11:12;6.30;1.00
3023;DHT22;1521;53.584;9.938;2023-02-23T17:13:38;6.30;1.00
3023;DHT22;1521;53.584;9.938;2023-02-23T17:16:06;6.30;99.90
3023;DHT22;1521;53.584;9.938;2023-02-23T17:18:33;6.20;35.40
3023;DHT22;1521;53.584;9.938;2023-02-23T17:21:05;6.20;99.90
3023;DHT22;1521;53.584;9.938;2023-02-23T17:23:34;6.20;99.90
3023;DHT22;1521;53.584;9.938;2023-02-23T17:26:07;6.20;1.00
3023;DHT22;1521;53.584;9.938;2023-02-23T17:28:33;6.10;99.90
3023;DHT22;1521;53.584;9.938;2023-02-23T17:31:00;6.10;1.00
3023;DHT22;1521;53.584;9.938;2023-02-23T17:33:26;6.10;1.00
3023;DHT22;1521;53.584;9.938;2023-02-23T17:35:52;6.00;81.90
3023;DHT22;1521;53.584;9.938;2023-02-23T17:38:18;6.00;1.00
3023;DHT22;1521;53.584;9.938;2023-02-23T17:40:46;6.00;1.00
3023;DHT22;1521;53.584;9.938;2023-02-23T17:43:11;6.00;99.90
3023;DHT22;1521;53.584;9.938;2023-02-23T17:45:37;6.00;99.90
3023;DHT22;1521;53.584;9.938;2023-02-23T17:48:03;6.10;99.50
3023;DHT22;1521;53.584;9.938;2023-02-23T17:50:29;6.00;1.00
3023;DHT22;1521;53.584;9.938;2023-02-23T17:52:55;6.00;99.90
3023;DHT22;1521;53.584;9.938;2023-02-23T17:55:22;6.00;99.90
3023;DHT22;1521;53.584;9.938;2023-02-23T17:57:48;6.00;99.90
3023;DHT22;1521;53.584;9.938;2023-02-23T18:00:15;5.90;1.00
3023;DHT22;1521;53.584;9.938;2023-02-23T18:02:43;5.90;1.00
3023;DHT22;1521;53.584;9.938;2023-02-23T18:05:10;5.90;1.00
3023;DHT22;1521;53.584;9.938;2023-02-23T18:07:37;5.90;99.90
3023;DHT22;1521;53.584;9.938;2023-02-23T18:10:04;5.90;1.00
3023;DHT22;1521;53.584;9.938;2023-02-23T18:12:30;5.80;1.00
3023;DHT22;1521;53.584;9.938;2023-02-23T18:14:56;5.70;99.40
3023;DHT22;1521;53.584;9.938;2023-02-23T18:17:22;5.80;1.00
3023;DHT22;1521;53.584;9.938;2023-02-23T18:19:47;5.70;1.00
3023;DHT22;1521;53.584;9.938;2023-02-23T18:22:15;5.70;99.90
3023;DHT22;1521;53.584;9.938;2023-02-23T18:24:41;5.70;99.90
3023;DHT22;1521;53.584;9.938;2023-02-23T18:27:06;5.60;1.00
3023;DHT22;1521;53.584;9.938;2023-02-23T18:29:34;5.60;99.90
3023;DHT22;1521;53.584;9.938;2023-02-23T18:32:01;5.60;99.90